Time;durP1;ratioP1;P1;durP2;ratioP2;P2;SDS_P1;SDS_P2;PMS_P1;PMS_P2;Temp;Humidity;BMP_temperature;BMP_pressure;BME280_temperature;BME280_humidity;BME280_pressure;Samples;Min_cycle;Max_cycle;Signal;HPM_P1;HPM_P2
2022/07/19 00:00:01;;;;;;;;;;;;;;;;;;350026;28;927;-63
2022/07/19 00:00:13;;;;;;;;;;;;;;;;;;349994;28;901;-63
2022/07/19 00:00:24;;;;;;;;;;;;;;;;;;349980;28;905;-63
2022/07/19 00:00:35;;;;;;;;;;;;;;;;;;349969;28;941;-64
2022/07/19 00:00:48;;;;;;;;;;;;;;;;;;350065;28;963;-63
2022/07/19 00:00:59;;;;;;;;;;;;;;;;;;350011;28;936;-63
2022/07/19 00:01:09;;;;;;;;;;;;;;;;;;350027;28;916;-63
2022/07/19 00:01:19;;;;;;;;;;;;;;;;;;350017;28;837;-63
2022/07/19 00:01:29;;;;;;;;;;;;;;;;;;350034;28;913;-63
2022/07/19 00:01:40;;;;;;;;;;;;;;;;;;350041;28;920;-63
2022/07/19 00:01:50;;;;;;;;;;;;;;;;;;350045;28;814;-63
2022/07/19 00:02:00;;;;;;;;;;;;;;;;;;349994;28;959;-64
2022/07/19 00:02:10;;;;;;;;;;;;;;;;;;350013;28;944;-63
2022/07/19 00:02:20;;;;;;;;;;;;;;;;;;350024;28;765;-63
2022/07/19 00:02:31;;;;;;;;;;;;;;;;;;349972;28;928;-63
2022/07/19 00:02:41;;;;;;;;;;;;;;;;;;349981;28;988;-63
2022/07/19 00:02:51;;;;;;;;;;;;;;;;;;350009;28;947;-63
2022/07/19 00:03:02;;;;;;;;;;;;;;;;;;350026;28;1043;-63
2022/07/19 00:03:12;;;;;;;;;;;;;;;;;;350043;28;869;-63
2022/07/19 00:03:23;;;;;;;;;;;;;;;;;;350003;28;1014;-63
2022/07/19 00:03:33;;;;;;;;;;;;;;;;;;350027;28;916;-63
2022/07/19 00:03:43;;;;;;;;;;;;;;;;;;350043;28;948;-63
2022/07/19 00:03:55;;;;;;;;;;;;;;;;;;349925;28;1895;-63
2022/07/19 00:04:05;;;;;;;;;;;;;;;;;;349990;28;864;-64
2022/07/19 00:04:15;;;;;;;;;;;;;;;;;;350012;28;980;-63
2022/07/19 00:04:26;;;;;;;;;;;;;;;;;;349971;28;836;-63
2022/07/19 00:04:36;;;;;;;;;;;;;;;;;;350018;28;913;-63
2022/07/19 00:04:46;;;;;;;;;;;;;;;;;;349962;28;998;-64
2022/07/19 00:04:56;;;;;;;;;;;;;;;;;;349926;28;742;-63
2022/07/19 00:05:07;;;;;;;;;;;;;;;;;;350006;28;905;-63
2022/07/19 00:05:18;;;;;;;;;;;;;;;;;;349985;28;838;-63
2022/07/19 00:05:28;;;;;;;;;;;;;;;;;;349976;28;928;-63
2022/07/19 00:05:39;;;;;;;;;;;;;;;;;;350023;28;1007;-63
2022/07/19 00:05:49;;;;;;;;;;;;;;;;;;350012;28;849;-63
2022/07/19 00:05:59;;;;;;;;;;;;;;;;;;349972;28;1015;-63
2022/07/19 00:06:09;;;;;;;;;;;;;;;;;;350011;28;786;-63
2022/07/19 00:06:19;;;;;;;;;;;;;;;;;;350034;28;912;-63
2022/07/19 00:06:30;;;;;;;;;;;;;;;;;;349964;28;1010;-63
2022/07/19 00:06:40;;;;;;;;;;;;;;;;;;350014;28;912;-63
2022/07/19 00:06:50;;;;;;;;;;;;;;;;;;350004;28;936;-63
2022/07/19 00:07:01;;;;;;;;;;;;;;;;;;349985;28;837;-63
2022/07/19 00:07:11;;;;;;;;;;;;;;;;;;349993;28;999;-63
2022/07/19 00:07:21;;;;;;;;;;;;;;;;;;350017;28;869;-63
2022/07/19 00:07:32;;;;;;;;;;;;;;;;;;349967;28;1131;-63
2022/07/19 00:07:42;;;;;;;;;;;;;;;;;;350565;28;1878;-63
2022/07/19 00:07:52;;;;;;;;;;;;;;;;;;352737;28;856;-63
2022/07/19 00:08:03;;;;;;;;;;;;;;;;;;352832;28;856;-63
2022/07/19 00:08:13;;;;;;;;;;;;;;;;;;352911;28;769;-63
2022/07/19 00:08:23;;;;;;;;;;;;;;;;;;352839;28;1039;-64
2022/07/19 00:08:34;;;;;;;;;;;;;;;;;;352745;28;972;-63
2022/07/19 00:08:44;;;;;;;;;;;;;;;;;;352811;28;900;-63
2022/07/19 00:08:54;;;;;;;;;;;;;;;;;;352813;28;896;-63
2022/07/19 00:09:05;;;;;;;;;;;;;;;;;;352849;28;786;-63
2022/07/19 00:09:15;;;;;;;;;;;;;;;;;;352866;28;845;-63
2022/07/19 00:09:26;;;;;;;;;;;;;;;;;;352875;27;920;-64
2022/07/19 00:09:36;;;;;;;;;;;;;;;;;;352800;28;829;-63
2022/07/19 00:09:46;;;;;;;;;;;;;;;;;;352833;28;805;-63
2022/07/19 00:09:56;;;;;;;;;;;;;;;;;;352804;28;825;-63
2022/07/19 00:10:08;;;;;;;;;;;;;;;;;;352795;28;920;-63
2022/07/19 00:10:19;;;;;;;;;;;;;;;;;;352810;28;908;-63
2022/07/19 00:10:29;;;;;;;;;;;;;;;;;;352798;28;943;-63
2022/07/19 00:10:40;;;;;;;;;;;;;;;;;;352754;28;987;-63
2022/07/19 00:10:50;;;;;;;;;;;;;;;;;;352794;28;924;-63
2022/07/19 00:11:00;;;;;;;;;;;;;;;;;;352727;28;1042;-63
2022/07/19 00:11:10;;;;;;;;;;;;;;;;;;352832;28;919;-63
2022/07/19 00:11:20;;;;;;;;;;;;;;;;;;352793;28;908;-64
2022/07/19 00:11:31;;;;;;;;;;;;;;;;;;352788;28;896;-63
2022/07/19 00:11:41;;;;;;;;;;;;;;;;;;352807;28;885;-64
2022/07/19 00:11:52;;;;;;;;;;;;;;;;;;352782;28;923;-63
2022/07/19 00:12:02;;;;;;;;;;;;;;;;;;351413;28;1377;-63
2022/07/19 00:12:13;;;;;;;;;;;;;;;;;;349909;28;1502;-63
2022/07/19 00:12:23;;;;;;;;;;;;;;;;;;350010;28;928;-63
2022/07/19 00:12:34;;;;;;;;;;;;;;;;;;349989;28;912;-63
2022/07/19 00:12:44;;;;;;;;;;;;;;;;;;349926;28;924;-63
2022/07/19 00:12:55;;;;;;;;;;;;;;;;;;350037;28;2029;-63
2022/07/19 00:13:05;;;;;;;;;;;;;;;;;;349974;28;925;-63
2022/07/19 00:13:15;;;;;;;;;;;;;;;;;;349879;28;928;-63
2022/07/19 00:13:25;;;;;;;;;;;;;;;;;;349813;28;805;-63
2022/07/19 00:13:35;;;;;;;;;;;;;;;;;;349952;28;971;-63
2022/07/19 00:13:46;;;;;;;;;;;;;;;;;;350020;28;952;-63
2022/07/19 00:13:56;;;;;;;;;;;;;;;;;;350013;28;920;-63
2022/07/19 00:14:06;;;;;;;;;;;;;;;;;;350242;28;1691;-63
2022/07/19 00:14:17;;;;;;;;;;;;;;;;;;351398;28;1028;-63
2022/07/19 00:14:27;;;;;;;;;;;;;;;;;;351424;28;817;-63
2022/07/19 00:14:37;;;;;;;;;;;;;;;;;;351432;28;758;-64
2022/07/19 00:14:47;;;;;;;;;;;;;;;;;;351371;27;967;-63
2022/07/19 00:14:58;;;;;;;;;;;;;;;;;;351392;28;939;-63
2022/07/19 00:15:09;;;;;;;;;;;;;;;;;;351382;27;912;-63
2022/07/19 00:15:19;;;;;;;;;;;;;;;;;;351415;28;912;-64
2022/07/19 00:15:29;;;;;;;;;;;;;;;;;;351331;28;1094;-64
2022/07/19 00:15:39;;;;;;;;;;;;;;;;;;351406;28;924;-63
2022/07/19 00:15:50;;;;;;;;;;;;;;;;;;351456;28;908;-63
2022/07/19 00:16:00;;;;;;;;;;;;;;;;;;351411;28;865;-63
2022/07/19 00:16:10;;;;;;;;;;;;;;;;;;350487;28;1360;-64
2022/07/19 00:16:20;;;;;;;;;;;;;;;;;;350423;28;952;-63
2022/07/19 00:16:30;;;;;;;;;;;;;;;;;;350014;28;856;-63
2022/07/19 00:16:41;;;;;;;;;;;;;;;;;;350002;28;925;-63
2022/07/19 00:16:51;;;;;;;;;;;;;;;;;;349854;28;1031;-63
2022/07/19 00:17:01;;;;;;;;;;;;;;;;;;350009;28;853;-63
2022/07/19 00:17:11;;;;;;;;;;;;;;;;;;349964;28;1003;-63
2022/07/19 00:17:21;;;;;;;;;;;;;;;;;;349987;28;1027;-63
2022/07/19 00:17:32;;;;;;;;;;;;;;;;;;349958;28;904;-63
2022/07/19 00:17:43;;;;;;;;;;;;;;;;;;349999;28;979;-63
2022/07/19 00:17:53;;;;;;;;;;;;;;;;;;350061;28;924;-63
2022/07/19 00:18:04;;;;;;;;;;;;;;;;;;349968;28;1365;-63
2022/07/19 00:18:14;;;;;;;;;;;;;;;;;;349940;28;943;-63
2022/07/19 00:18:24;;;;;;;;;;;;;;;;;;349983;28;1007;-63
2022/07/19 00:18:35;;;;;;;;;;;;;;;;;;350047;28;841;-63
2022/07/19 00:18:45;;;;;;;;;;;;;;;;;;349998;28;877;-63
2022/07/19 00:18:55;;;;;;;;;;;;;;;;;;349939;28;924;-63
2022/07/19 00:19:06;;;;;;;;;;;;;;;;;;350002;28;841;-63
2022/07/19 00:19:16;;;;;;;;;;;;;;;;;;349964;28;1141;-63
2022/07/19 00:19:26;;;;;;;;;;;;;;;;;;349815;28;1172;-63
2022/07/19 00:19:36;;;;;;;;;;;;;;;;;;349936;28;929;-64
2022/07/19 00:19:47;;;;;;;;;;;;;;;;;;350030;28;869;-63
2022/07/19 00:19:57;;;;;;;;;;;;;;;;;;350005;28;908;-63
2022/07/19 00:20:08;;;;;;;;;;;;;;;;;;349971;28;996;-63
2022/07/19 00:20:20;;;;;;;;;;;;;;;;;;349905;28;1324;-63
2022/07/19 00:20:30;;;;;;;;;;;;;;;;;;349996;28;969;-63
2022/07/19 00:20:40;;;;;;;;;;;;;;;;;;349998;28;995;-63
2022/07/19 00:20:50;;;;;;;;;;;;;;;;;;349998;28;978;-63
2022/07/19 00:21:01;;;;;;;;;;;;;;;;;;349925;28;952;-63
2022/07/19 00:21:11;;;;;;;;;;;;;;;;;;349955;28;829;-63
2022/07/19 00:21:21;;;;;;;;;;;;;;;;;;350019;28;1015;-63
2022/07/19 00:21:31;;;;;;;;;;;;;;;;;;349978;28;1121;-63
2022/07/19 00:21:41;;;;;;;;;;;;;;;;;;349973;28;1018;-63
2022/07/19 00:21:52;;;;;;;;;;;;;;;;;;349982;28;924;-63
2022/07/19 00:22:02;;;;;;;;;;;;;;;;;;350018;28;923;-63
2022/07/19 00:22:12;;;;;;;;;;;;;;;;;;350031;28;913;-63
2022/07/19 00:22:22;;;;;;;;;;;;;;;;;;350019;28;924;-63
2022/07/19 00:22:32;;;;;;;;;;;;;;;;;;350022;28;916;-63
2022/07/19 00:22:43;;;;;;;;;;;;;;;;;;349929;28;1000;-63
2022/07/19 00:22:53;;;;;;;;;;;;;;;;;;350001;28;975;-64
2022/07/19 00:23:03;;;;;;;;;;;;;;;;;;350015;28;1007;-63
2022/07/19 00:23:13;;;;;;;;;;;;;;;;;;349908;28;924;-63
2022/07/19 00:23:23;;;;;;;;;;;;;;;;;;350028;28;798;-63
2022/07/19 00:23:34;;;;;;;;;;;;;;;;;;349954;28;958;-63
2022/07/19 00:23:44;;;;;;;;;;;;;;;;;;350026;28;995;-63
2022/07/19 00:23:54;;;;;;;;;;;;;;;;;;349917;28;1973;-63
2022/07/19 00:24:05;;;;;;;;;;;;;;;;;;349983;28;1131;-63
2022/07/19 00:24:15;;;;;;;;;;;;;;;;;;349933;28;816;-63
2022/07/19 00:24:25;;;;;;;;;;;;;;;;;;349944;28;836;-63
2022/07/19 00:24:35;;;;;;;;;;;;;;;;;;350024;28;901;-63
2022/07/19 00:24:46;;;;;;;;;;;;;;;;;;350985;28;1312;-63
2022/07/19 00:24:56;;;;;;;;;;;;;;;;;;351379;28;905;-63
2022/07/19 00:25:06;;;;;;;;;;;;;;;;;;351385;28;1128;-63
2022/07/19 00:25:16;;;;;;;;;;;;;;;;;;351287;28;928;-63
2022/07/19 00:25:27;;;;;;;;;;;;;;;;;;351412;28;821;-63
2022/07/19 00:25:37;;;;;;;;;;;;;;;;;;351417;28;983;-63
2022/07/19 00:25:47;;;;;;;;;;;;;;;;;;351384;28;987;-63
2022/07/19 00:25:57;;;;;;;;;;;;;;;;;;351404;28;881;-63
2022/07/19 00:26:07;;;;;;;;;;;;;;;;;;351357;28;1024;-63
2022/07/19 00:26:18;;;;;;;;;;;;;;;;;;351260;28;1307;-63
2022/07/19 00:26:28;;;;;;;;;;;;;;;;;;351390;28;940;-63
2022/07/19 00:26:38;;;;;;;;;;;;;;;;;;351395;28;936;-63
2022/07/19 00:26:48;;;;;;;;;;;;;;;;;;351377;28;944;-63
2022/07/19 00:26:58;;;;;;;;;;;;;;;;;;351338;28;968;-63
2022/07/19 00:27:09;;;;;;;;;;;;;;;;;;351386;28;849;-64
2022/07/19 00:27:19;;;;;;;;;;;;;;;;;;351260;28;991;-63
2022/07/19 00:27:29;;;;;;;;;;;;;;;;;;351417;28;896;-63
2022/07/19 00:27:40;;;;;;;;;;;;;;;;;;351325;28;952;-63
2022/07/19 00:27:50;;;;;;;;;;;;;;;;;;351397;27;936;-64
2022/07/19 00:28:01;;;;;;;;;;;;;;;;;;351427;28;833;-63
2022/07/19 00:28:11;;;;;;;;;;;;;;;;;;351385;28;975;-63
2022/07/19 00:28:21;;;;;;;;;;;;;;;;;;351336;28;782;-63
2022/07/19 00:28:32;;;;;;;;;;;;;;;;;;351390;28;876;-63
2022/07/19 00:28:42;;;;;;;;;;;;;;;;;;351383;28;940;-63
2022/07/19 00:28:54;;;;;;;;;;;;;;;;;;351365;28;924;-63
2022/07/19 00:29:04;;;;;;;;;;;;;;;;;;351351;28;1176;-63
2022/07/19 00:29:15;;;;;;;;;;;;;;;;;;351336;28;1000;-63
2022/07/19 00:29:25;;;;;;;;;;;;;;;;;;351317;28;925;-63
2022/07/19 00:29:35;;;;;;;;;;;;;;;;;;351374;28;956;-63
2022/07/19 00:29:45;;;;;;;;;;;;;;;;;;351375;28;991;-63
2022/07/19 00:29:55;;;;;;;;;;;;;;;;;;351386;28;952;-63
2022/07/19 00:30:06;;;;;;;;;;;;;;;;;;350852;28;1390;-63
2022/07/19 00:30:16;;;;;;;;;;;;;;;;;;350523;28;1438;-63
2022/07/19 00:30:26;;;;;;;;;;;;;;;;;;351330;28;868;-63
2022/07/19 00:30:36;;;;;;;;;;;;;;;;;;351382;28;944;-63
2022/07/19 00:30:46;;;;;;;;;;;;;;;;;;351381;28;920;-63
2022/07/19 00:30:58;;;;;;;;;;;;;;;;;;351375;28;857;-63
2022/07/19 00:31:08;;;;;;;;;;;;;;;;;;351324;28;857;-64
2022/07/19 00:31:18;;;;;;;;;;;;;;;;;;351388;28;932;-63
2022/07/19 00:31:29;;;;;;;;;;;;;;;;;;351288;28;1052;-63
2022/07/19 00:31:39;;;;;;;;;;;;;;;;;;351391;28;917;-63
2022/07/19 00:31:49;;;;;;;;;;;;;;;;;;351433;28;849;-63
2022/07/19 00:31:59;;;;;;;;;;;;;;;;;;351321;28;928;-63
2022/07/19 00:32:10;;;;;;;;;;;;;;;;;;351392;28;988;-63
2022/07/19 00:32:20;;;;;;;;;;;;;;;;;;350407;28;1287;-63
2022/07/19 00:32:30;;;;;;;;;;;;;;;;;;350401;28;828;-63
2022/07/19 00:32:40;;;;;;;;;;;;;;;;;;350009;28;790;-64
2022/07/19 00:32:50;;;;;;;;;;;;;;;;;;350010;28;801;-63
2022/07/19 00:33:04;;;;;;;;;;;;;;;;;;349981;28;979;-63
2022/07/19 00:33:14;;;;;;;;;;;;;;;;;;349974;28;1055;-63
2022/07/19 00:33:24;;;;;;;;;;;;;;;;;;350007;28;821;-63
2022/07/19 00:33:35;;;;;;;;;;;;;;;;;;349898;28;988;-63
2022/07/19 00:33:45;;;;;;;;;;;;;;;;;;350013;28;925;-63
2022/07/19 00:33:55;;;;;;;;;;;;;;;;;;350018;28;952;-63
2022/07/19 00:34:05;;;;;;;;;;;;;;;;;;350018;28;972;-63
2022/07/19 00:34:15;;;;;;;;;;;;;;;;;;349960;28;960;-63
2022/07/19 00:34:26;;;;;;;;;;;;;;;;;;349901;28;952;-63
2022/07/19 00:34:36;;;;;;;;;;;;;;;;;;349984;28;920;-63
2022/07/19 00:34:46;;;;;;;;;;;;;;;;;;349953;28;1007;-63
2022/07/19 00:34:56;;;;;;;;;;;;;;;;;;350014;28;853;-63
2022/07/19 00:35:07;;;;;;;;;;;;;;;;;;350025;28;901;-64
2022/07/19 00:35:17;;;;;;;;;;;;;;;;;;350084;28;888;-63
2022/07/19 00:35:28;;;;;;;;;;;;;;;;;;349986;28;932;-63
2022/07/19 00:35:38;;;;;;;;;;;;;;;;;;349959;28;948;-63
2022/07/19 00:35:49;;;;;;;;;;;;;;;;;;350006;28;999;-63
2022/07/19 00:35:59;;;;;;;;;;;;;;;;;;349972;28;988;-63
2022/07/19 00:36:09;;;;;;;;;;;;;;;;;;349957;28;969;-63
2022/07/19 00:36:20;;;;;;;;;;;;;;;;;;350015;28;849;-63
2022/07/19 00:36:30;;;;;;;;;;;;;;;;;;349970;28;995;-63
2022/07/19 00:36:41;;;;;;;;;;;;;;;;;;349966;28;952;-63
2022/07/19 00:36:51;;;;;;;;;;;;;;;;;;349974;28;1112;-63
2022/07/19 00:37:01;;;;;;;;;;;;;;;;;;349926;28;1008;-63
2022/07/19 00:37:11;;;;;;;;;;;;;;;;;;349432;28;1835;-63
2022/07/19 00:37:22;;;;;;;;;;;;;;;;;;351907;28;1592;-63
2022/07/19 00:37:32;;;;;;;;;;;;;;;;;;352773;28;975;-63
2022/07/19 00:37:42;;;;;;;;;;;;;;;;;;352708;28;804;-64
2022/07/19 00:37:52;;;;;;;;;;;;;;;;;;352776;28;963;-63
2022/07/19 00:38:10;;;;;;;;;;;;;;;;;;352808;28;942;-63
2022/07/19 00:38:20;;;;;;;;;;;;;;;;;;352739;28;948;-63
2022/07/19 00:38:30;;;;;;;;;;;;;;;;;;352766;28;814;-63
2022/07/19 00:38:40;;;;;;;;;;;;;;;;;;352791;28;932;-63
2022/07/19 00:38:50;;;;;;;;;;;;;;;;;;352791;28;904;-64
2022/07/19 00:39:01;;;;;;;;;;;;;;;;;;352709;28;1320;-63
2022/07/19 00:39:11;;;;;;;;;;;;;;;;;;352767;28;983;-63
2022/07/19 00:39:21;;;;;;;;;;;;;;;;;;352796;28;856;-63
2022/07/19 00:39:31;;;;;;;;;;;;;;;;;;352724;28;1099;-64
2022/07/19 00:39:42;;;;;;;;;;;;;;;;;;352779;28;813;-63
2022/07/19 00:39:52;;;;;;;;;;;;;;;;;;352737;28;790;-63
2022/07/19 00:40:02;;;;;;;;;;;;;;;;;;352762;28;963;-63
2022/07/19 00:40:13;;;;;;;;;;;;;;;;;;352776;28;999;-63
2022/07/19 00:40:24;;;;;;;;;;;;;;;;;;352774;28;1735;-63
2022/07/19 00:40:35;;;;;;;;;;;;;;;;;;352787;28;793;-63
2022/07/19 00:40:45;;;;;;;;;;;;;;;;;;352793;28;963;-63
2022/07/19 00:40:55;;;;;;;;;;;;;;;;;;352782;28;837;-63
2022/07/19 00:41:05;;;;;;;;;;;;;;;;;;352686;28;915;-63
2022/07/19 00:41:15;;;;;;;;;;;;;;;;;;352832;28;758;-63
2022/07/19 00:41:26;;;;;;;;;;;;;;;;;;352740;28;968;-63
2022/07/19 00:41:43;;;;;;;;;;;;;;;;;;352736;28;873;-63
2022/07/19 00:41:53;;;;;;;;;;;;;;;;;;352696;28;892;-63
2022/07/19 00:42:03;;;;;;;;;;;;;;;;;;352803;28;908;-63
2022/07/19 00:42:14;;;;;;;;;;;;;;;;;;352791;28;857;-63
2022/07/19 00:42:24;;;;;;;;;;;;;;;;;;352750;28;898;-63
2022/07/19 00:42:35;;;;;;;;;;;;;;;;;;352785;28;940;-63
2022/07/19 00:42:45;;;;;;;;;;;;;;;;;;352768;28;916;-63
2022/07/19 00:42:56;;;;;;;;;;;;;;;;;;352716;28;940;-63
2022/07/19 00:43:07;;;;;;;;;;;;;;;;;;352797;28;916;-63
2022/07/19 00:43:17;;;;;;;;;;;;;;;;;;352803;28;948;-63
2022/07/19 00:43:27;;;;;;;;;;;;;;;;;;352737;28;868;-63
2022/07/19 00:43:41;;;;;;;;;;;;;;;;;;352785;28;864;-63
2022/07/19 00:43:51;;;;;;;;;;;;;;;;;;352750;28;1901;-63
2022/07/19 00:44:02;;;;;;;;;;;;;;;;;;352682;28;904;-63
2022/07/19 00:44:12;;;;;;;;;;;;;;;;;;352783;28;908;-63
2022/07/19 00:44:22;;;;;;;;;;;;;;;;;;352776;28;916;-63
2022/07/19 00:44:33;;;;;;;;;;;;;;;;;;352740;28;1037;-63
2022/07/19 00:44:43;;;;;;;;;;;;;;;;;;352798;28;774;-63
2022/07/19 00:44:53;;;;;;;;;;;;;;;;;;352784;28;996;-63
2022/07/19 00:45:04;;;;;;;;;;;;;;;;;;352758;28;914;-63
2022/07/19 00:45:14;;;;;;;;;;;;;;;;;;352748;28;1045;-63
2022/07/19 00:45:24;;;;;;;;;;;;;;;;;;352774;28;979;-63
2022/07/19 00:45:35;;;;;;;;;;;;;;;;;;352729;28;923;-63
2022/07/19 00:45:45;;;;;;;;;;;;;;;;;;352752;28;1018;-63
2022/07/19 00:45:55;;;;;;;;;;;;;;;;;;352795;28;901;-63
2022/07/19 00:46:11;;;;;;;;;;;;;;;;;;352698;28;991;-63
2022/07/19 00:46:21;;;;;;;;;;;;;;;;;;352796;28;956;-63
2022/07/19 00:46:31;;;;;;;;;;;;;;;;;;352765;28;952;-63
2022/07/19 00:46:41;;;;;;;;;;;;;;;;;;352740;28;971;-63
2022/07/19 00:46:52;;;;;;;;;;;;;;;;;;352691;28;1008;-64
2022/07/19 00:47:02;;;;;;;;;;;;;;;;;;351744;28;1393;-63
2022/07/19 00:47:13;;;;;;;;;;;;;;;;;;350221;28;1739;-63
2022/07/19 00:47:23;;;;;;;;;;;;;;;;;;351376;28;917;-63
2022/07/19 00:47:33;;;;;;;;;;;;;;;;;;350009;28;782;-63
2022/07/19 00:47:43;;;;;;;;;;;;;;;;;;349972;28;1027;-63
2022/07/19 00:47:54;;;;;;;;;;;;;;;;;;350000;28;996;-63
2022/07/19 00:48:04;;;;;;;;;;;;;;;;;;350002;28;865;-63
2022/07/19 00:48:14;;;;;;;;;;;;;;;;;;349873;28;900;-63
2022/07/19 00:48:25;;;;;;;;;;;;;;;;;;349987;28;987;-63
2022/07/19 00:48:35;;;;;;;;;;;;;;;;;;349967;28;913;-63
2022/07/19 00:48:46;;;;;;;;;;;;;;;;;;349980;28;853;-63
2022/07/19 00:48:56;;;;;;;;;;;;;;;;;;349931;28;1108;-63
2022/07/19 00:49:06;;;;;;;;;;;;;;;;;;349980;28;975;-63
2022/07/19 00:49:16;;;;;;;;;;;;;;;;;;349979;28;796;-63
2022/07/19 00:49:27;;;;;;;;;;;;;;;;;;349981;28;932;-63
2022/07/19 00:49:37;;;;;;;;;;;;;;;;;;349964;28;833;-64
2022/07/19 00:49:47;;;;;;;;;;;;;;;;;;349997;28;869;-63
2022/07/19 00:49:57;;;;;;;;;;;;;;;;;;350022;28;916;-63
2022/07/19 00:50:08;;;;;;;;;;;;;;;;;;349985;28;838;-63
2022/07/19 00:50:19;;;;;;;;;;;;;;;;;;349862;28;928;-64
2022/07/19 00:50:29;;;;;;;;;;;;;;;;;;350013;28;774;-63
2022/07/19 00:50:39;;;;;;;;;;;;;;;;;;350048;28;968;-63
2022/07/19 00:50:50;;;;;;;;;;;;;;;;;;349962;28;849;-63
2022/07/19 00:51:00;;;;;;;;;;;;;;;;;;349913;28;798;-64
2022/07/19 00:51:12;;;;;;;;;;;;;;;;;;349972;28;920;-64
2022/07/19 00:51:22;;;;;;;;;;;;;;;;;;349946;28;916;-63
2022/07/19 00:51:37;;;;;;;;;;;;;;;;;;350023;28;916;-63
2022/07/19 00:51:51;;;;;;;;;;;;;;;;;;349913;28;996;-64
2022/07/19 00:52:03;;;;;;;;;;;;;;;;;;350007;28;890;-63
2022/07/19 00:52:14;;;;;;;;;;;;;;;;;;349975;28;992;-63
2022/07/19 00:52:26;;;;;;;;;;;;;;;;;;349906;28;1027;-63
2022/07/19 00:52:38;;;;;;;;;;;;;;;;;;349935;28;988;-63
2022/07/19 00:52:49;;;;;;;;;;;;;;;;;;349935;28;1087;-63
2022/07/19 00:53:01;;;;;;;;;;;;;;;;;;349977;28;932;-63
2022/07/19 00:53:11;;;;;;;;;;;;;;;;;;349961;28;972;-63
2022/07/19 00:53:22;;;;;;;;;;;;;;;;;;349908;28;1067;-64
2022/07/19 00:53:34;;;;;;;;;;;;;;;;;;349989;28;767;-63
2022/07/19 00:53:45;;;;;;;;;;;;;;;;;;350020;28;984;-63
2022/07/19 00:53:56;;;;;;;;;;;;;;;;;;349938;28;1015;-63
2022/07/19 00:54:07;;;;;;;;;;;;;;;;;;349911;28;1035;-63
2022/07/19 00:54:18;;;;;;;;;;;;;;;;;;349985;28;995;-63
2022/07/19 00:54:30;;;;;;;;;;;;;;;;;;349797;28;1583;-63
2022/07/19 00:54:41;;;;;;;;;;;;;;;;;;351348;28;979;-63
2022/07/19 00:54:52;;;;;;;;;;;;;;;;;;351290;28;960;-63
2022/07/19 00:55:03;;;;;;;;;;;;;;;;;;351324;28;1075;-63
2022/07/19 00:55:13;;;;;;;;;;;;;;;;;;351385;28;873;-63
2022/07/19 00:55:23;;;;;;;;;;;;;;;;;;351375;28;810;-63
2022/07/19 00:55:35;;;;;;;;;;;;;;;;;;351351;28;1037;-63
2022/07/19 00:55:45;;;;;;;;;;;;;;;;;;351342;28;785;-63
2022/07/19 00:55:56;;;;;;;;;;;;;;;;;;351342;28;892;-63
2022/07/19 00:56:08;;;;;;;;;;;;;;;;;;351361;27;984;-63
2022/07/19 00:56:18;;;;;;;;;;;;;;;;;;351365;28;976;-63
2022/07/19 00:56:30;;;;;;;;;;;;;;;;;;351313;28;853;-63
2022/07/19 00:56:42;;;;;;;;;;;;;;;;;;351372;28;857;-63
2022/07/19 00:56:52;;;;;;;;;;;;;;;;;;351337;28;959;-64
2022/07/19 00:57:03;;;;;;;;;;;;;;;;;;351391;28;956;-63
2022/07/19 00:57:14;;;;;;;;;;;;;;;;;;351345;28;988;-63
2022/07/19 00:57:25;;;;;;;;;;;;;;;;;;351357;28;999;-63
2022/07/19 00:57:37;;;;;;;;;;;;;;;;;;351293;28;991;-64
2022/07/19 00:57:48;;;;;;;;;;;;;;;;;;351392;28;1011;-63
2022/07/19 00:57:59;;;;;;;;;;;;;;;;;;351250;28;991;-63
2022/07/19 00:58:10;;;;;;;;;;;;;;;;;;351237;28;1346;-63
2022/07/19 00:58:21;;;;;;;;;;;;;;;;;;351317;27;1034;-63
2022/07/19 00:58:32;;;;;;;;;;;;;;;;;;351318;28;924;-63
2022/07/19 00:58:43;;;;;;;;;;;;;;;;;;351302;28;789;-64
2022/07/19 00:58:53;;;;;;;;;;;;;;;;;;351316;28;980;-63
2022/07/19 00:59:04;;;;;;;;;;;;;;;;;;351287;28;995;-64
2022/07/19 00:59:15;;;;;;;;;;;;;;;;;;351402;28;965;-63
2022/07/19 00:59:26;;;;;;;;;;;;;;;;;;351335;28;995;-63
2022/07/19 00:59:36;;;;;;;;;;;;;;;;;;351356;27;1010;-63
2022/07/19 00:59:49;;;;;;;;;;;;;;;;;;351317;28;913;-63
2022/07/19 00:59:59;;;;;;;;;;;;;;;;;;351344;28;987;-63
2022/07/19 01:00:09;;;;;;;;;;;;;;;;;;351332;28;983;-63
2022/07/19 01:00:20;;;;;;;;;;;;;;;;;;351390;28;861;-63
2022/07/19 01:00:31;;;;;;;;;;;;;;;;;;351330;28;952;-63
2022/07/19 01:00:42;;;;;;;;;;;;;;;;;;351278;28;1042;-63
2022/07/19 01:00:52;;;;;;;;;;;;;;;;;;351344;28;1015;-63
2022/07/19 01:01:03;;;;;;;;;;;;;;;;;;351364;28;995;-63
2022/07/19 01:01:13;;;;;;;;;;;;;;;;;;351337;28;1026;-63
2022/07/19 01:01:24;;;;;;;;;;;;;;;;;;351343;28;975;-63
2022/07/19 01:01:34;;;;;;;;;;;;;;;;;;351324;28;907;-63
2022/07/19 01:01:45;;;;;;;;;;;;;;;;;;351345;28;963;-63
2022/07/19 01:01:55;;;;;;;;;;;;;;;;;;351327;28;912;-63
2022/07/19 01:02:05;;;;;;;;;;;;;;;;;;351338;28;999;-63
2022/07/19 01:02:16;;;;;;;;;;;;;;;;;;351300;27;1027;-64
2022/07/19 01:02:28;;;;;;;;;;;;;;;;;;351381;28;799;-63
2022/07/19 01:02:39;;;;;;;;;;;;;;;;;;351378;28;908;-63
2022/07/19 01:02:50;;;;;;;;;;;;;;;;;;351308;28;975;-63
2022/07/19 01:03:01;;;;;;;;;;;;;;;;;;351284;28;912;-63
2022/07/19 01:03:13;;;;;;;;;;;;;;;;;;351390;28;923;-63
2022/07/19 01:03:24;;;;;;;;;;;;;;;;;;351196;28;1428;-63
2022/07/19 01:03:36;;;;;;;;;;;;;;;;;;351228;28;1412;-63
2022/07/19 01:03:46;;;;;;;;;;;;;;;;;;351386;28;880;-63
2022/07/19 01:03:57;;;;;;;;;;;;;;;;;;351286;28;1913;-63
2022/07/19 01:04:07;;;;;;;;;;;;;;;;;;351349;28;927;-63
2022/07/19 01:04:18;;;;;;;;;;;;;;;;;;351390;28;852;-63
2022/07/19 01:04:28;;;;;;;;;;;;;;;;;;351415;28;943;-63
2022/07/19 01:04:39;;;;;;;;;;;;;;;;;;351366;28;904;-64
2022/07/19 01:04:49;;;;;;;;;;;;;;;;;;350272;28;1413;-63
2022/07/19 01:05:00;;;;;;;;;;;;;;;;;;350692;28;1565;-63
2022/07/19 01:05:11;;;;;;;;;;;;;;;;;;351056;28;798;-63
2022/07/19 01:05:21;;;;;;;;;;;;;;;;;;351403;28;765;-63
2022/07/19 01:05:31;;;;;;;;;;;;;;;;;;351311;28;1730;-63
2022/07/19 01:05:41;;;;;;;;;;;;;;;;;;351407;28;904;-63
2022/07/19 01:05:52;;;;;;;;;;;;;;;;;;351357;28;1092;-64
2022/07/19 01:06:02;;;;;;;;;;;;;;;;;;351368;28;911;-64
2022/07/19 01:06:12;;;;;;;;;;;;;;;;;;351307;28;770;-63
2022/07/19 01:06:23;;;;;;;;;;;;;;;;;;351361;28;912;-63
2022/07/19 01:06:33;;;;;;;;;;;;;;;;;;351424;28;982;-63
2022/07/19 01:06:43;;;;;;;;;;;;;;;;;;351363;28;979;-63
2022/07/19 01:06:53;;;;;;;;;;;;;;;;;;351320;28;1014;-63
2022/07/19 01:07:04;;;;;;;;;;;;;;;;;;351317;28;912;-63
2022/07/19 01:07:14;;;;;;;;;;;;;;;;;;350618;28;1866;-63
2022/07/19 01:07:24;;;;;;;;;;;;;;;;;;351813;28;1577;-63
2022/07/19 01:07:35;;;;;;;;;;;;;;;;;;352776;28;904;-63
2022/07/19 01:07:45;;;;;;;;;;;;;;;;;;352785;28;955;-63
2022/07/19 01:07:55;;;;;;;;;;;;;;;;;;352725;28;927;-63
2022/07/19 01:08:06;;;;;;;;;;;;;;;;;;352736;28;951;-63
2022/07/19 01:08:16;;;;;;;;;;;;;;;;;;352786;28;829;-63
2022/07/19 01:08:27;;;;;;;;;;;;;;;;;;352756;28;963;-63
2022/07/19 01:08:37;;;;;;;;;;;;;;;;;;352785;28;773;-63
2022/07/19 01:08:47;;;;;;;;;;;;;;;;;;352738;28;940;-63
2022/07/19 01:08:58;;;;;;;;;;;;;;;;;;352719;28;912;-63
2022/07/19 01:09:08;;;;;;;;;;;;;;;;;;352710;28;788;-63
2022/07/19 01:09:18;;;;;;;;;;;;;;;;;;352796;28;908;-63
2022/07/19 01:09:28;;;;;;;;;;;;;;;;;;352773;28;777;-63
2022/07/19 01:09:40;;;;;;;;;;;;;;;;;;352695;28;995;-63
2022/07/19 01:09:51;;;;;;;;;;;;;;;;;;352773;28;765;-63
2022/07/19 01:10:02;;;;;;;;;;;;;;;;;;352769;28;911;-63
2022/07/19 01:10:13;;;;;;;;;;;;;;;;;;352741;28;868;-63
2022/07/19 01:10:23;;;;;;;;;;;;;;;;;;352777;28;907;-63
2022/07/19 01:10:34;;;;;;;;;;;;;;;;;;352664;28;1027;-63
2022/07/19 01:10:44;;;;;;;;;;;;;;;;;;352790;28;912;-63
2022/07/19 01:10:54;;;;;;;;;;;;;;;;;;352796;28;813;-63
2022/07/19 01:11:05;;;;;;;;;;;;;;;;;;352688;28;1003;-63
2022/07/19 01:11:15;;;;;;;;;;;;;;;;;;352781;28;920;-63
2022/07/19 01:11:26;;;;;;;;;;;;;;;;;;352713;28;1077;-63
2022/07/19 01:11:36;;;;;;;;;;;;;;;;;;352774;28;881;-63
2022/07/19 01:11:46;;;;;;;;;;;;;;;;;;352744;28;994;-63
2022/07/19 01:11:57;;;;;;;;;;;;;;;;;;352742;28;967;-63
2022/07/19 01:12:07;;;;;;;;;;;;;;;;;;352735;28;1023;-63
2022/07/19 01:12:19;;;;;;;;;;;;;;;;;;352644;28;1077;-63
2022/07/19 01:12:29;;;;;;;;;;;;;;;;;;352764;28;939;-63
2022/07/19 01:12:40;;;;;;;;;;;;;;;;;;352780;28;995;-63
2022/07/19 01:12:50;;;;;;;;;;;;;;;;;;352765;28;797;-63
2022/07/19 01:13:01;;;;;;;;;;;;;;;;;;352767;28;971;-63
2022/07/19 01:13:12;;;;;;;;;;;;;;;;;;352679;28;1113;-63
2022/07/19 01:13:23;;;;;;;;;;;;;;;;;;352741;28;1035;-63
2022/07/19 01:13:33;;;;;;;;;;;;;;;;;;352745;28;809;-63
2022/07/19 01:13:44;;;;;;;;;;;;;;;;;;352784;28;1003;-63
2022/07/19 01:13:54;;;;;;;;;;;;;;;;;;352778;28;916;-63
2022/07/19 01:14:04;;;;;;;;;;;;;;;;;;352805;28;889;-64
2022/07/19 01:14:15;;;;;;;;;;;;;;;;;;352739;28;991;-63
2022/07/19 01:14:25;;;;;;;;;;;;;;;;;;352729;28;991;-63
2022/07/19 01:14:36;;;;;;;;;;;;;;;;;;352705;28;972;-63
2022/07/19 01:14:46;;;;;;;;;;;;;;;;;;352758;28;1010;-63
2022/07/19 01:14:57;;;;;;;;;;;;;;;;;;352696;28;916;-63
2022/07/19 01:15:15;;;;;;;;;;;;;;;;;;352783;28;932;-63
2022/07/19 01:15:27;;;;;;;;;;;;;;;;;;352684;28;995;-63
2022/07/19 01:15:39;;;;;;;;;;;;;;;;;;352770;28;912;-63